sensor_id;sensor_type;location;lat;lon;timestamp;P1;durP1;ratioP1;P2;durP2;ratioP2
19595;SDS011;9945;46.010;8.946;2023-11-21T00:01:04;15.43;;;12.65;;
19595;SDS011;9945;46.010;8.946;2023-11-21T00:03:33;15.07;;;12.35;;
19595;SDS011;9945;46.010;8.946;2023-11-21T00:06:00;18.45;;;13.80;;
19595;SDS011;9945;46.010;8.946;2023-11-21T00:08:27;16.65;;;13.70;;
19595;SDS011;9945;46.010;8.946;2023-11-21T00:10:55;17.17;;;13.90;;
19595;SDS011;9945;46.010;8.946;2023-11-21T00:13:22;15.98;;;14.23;;
19595;SDS011;9945;46.010;8.946;2023-11-21T00:15:49;20.75;;;13.80;;
19595;SDS011;9945;46.010;8.946;2023-11-21T00:18:17;19.27;;;13.52;;
19595;SDS011;9945;46.010;8.946;2023-11-21T00:20:44;20.00;;;15.23;;
19595;SDS011;9945;46.010;8.946;2023-11-21T00:23:11;18.13;;;14.80;;
19595;SDS011;9945;46.010;8.946;2023-11-21T00:25:38;16.93;;;15.33;;
19595;SDS011;9945;46.010;8.946;2023-11-21T00:28:07;17.87;;;14.53;;
19595;SDS011;9945;46.010;8.946;2023-11-21T00:30:34;16.33;;;14.65;;
19595;SDS011;9945;46.010;8.946;2023-11-21T00:33:00;18.08;;;14.32;;
19595;SDS011;9945;46.010;8.946;2023-11-21T00:35:29;16.77;;;14.27;;
19595;SDS011;9945;46.010;8.946;2023-11-21T00:37:55;15.40;;;13.77;;
19595;SDS011;9945;46.010;8.946;2023-11-21T00:40:23;14.82;;;13.32;;
19595;SDS011;9945;46.010;8.946;2023-11-21T00:42:50;17.50;;;14.05;;
19595;SDS011;9945;46.010;8.946;2023-11-21T00:45:17;16.88;;;14.25;;
19595;SDS011;9945;46.010;8.946;2023-11-21T00:47:44;22.50;;;14.52;;
19595;SDS011;9945;46.010;8.946;2023-11-21T00:50:11;18.85;;;14.07;;
19595;SDS011;9945;46.010;8.946;2023-11-21T00:52:39;18.30;;;15.65;;
19595;SDS011;9945;46.010;8.946;2023-11-21T00:55:06;20.60;;;15.02;;
19595;SDS011;9945;46.010;8.946;2023-11-21T00:57:33;21.58;;;16.45;;
19595;SDS011;9945;46.010;8.946;2023-11-21T01:00:01;19.98;;;16.27;;
19595;SDS011;9945;46.010;8.946;2023-11-21T01:02:35;19.88;;;15.95;;
19595;SDS011;9945;46.010;8.946;2023-11-21T01:05:02;19.60;;;16.02;;
19595;SDS011;9945;46.010;8.946;2023-11-21T01:07:29;20.27;;;16.55;;
19595;SDS011;9945;46.010;8.946;2023-11-21T01:09:57;17.05;;;15.25;;
19595;SDS011;9945;46.010;8.946;2023-11-21T01:12:24;16.17;;;14.57;;
19595;SDS011;9945;46.010;8.946;2023-11-21T01:14:51;16.90;;;15.02;;
19595;SDS011;9945;46.010;8.946;2023-11-21T01:17:18;18.70;;;13.90;;
19595;SDS011;9945;46.010;8.946;2023-11-21T01:19:45;15.68;;;13.95;;
19595;SDS011;9945;46.010;8.946;2023-11-21T01:22:12;14.63;;;13.03;;
19595;SDS011;9945;46.010;8.946;2023-11-21T01:24:38;15.98;;;12.90;;
19595;SDS011;9945;46.010;8.946;2023-11-21T01:27:07;20.50;;;14.70;;
19595;SDS011;9945;46.010;8.946;2023-11-21T01:29:34;16.27;;;14.50;;
19595;SDS011;9945;46.010;8.946;2023-11-21T01:32:01;16.77;;;14.27;;
19595;SDS011;9945;46.010;8.946;2023-11-21T01:34:29;16.20;;;14.20;;
19595;SDS011;9945;46.010;8.946;2023-11-21T01:36:56;15.90;;;14.20;;
19595;SDS011;9945;46.010;8.946;2023-11-21T01:39:23;18.05;;;14.82;;
19595;SDS011;9945;46.010;8.946;2023-11-21T01:41:51;16.30;;;13.25;;
19595;SDS011;9945;46.010;8.946;2023-11-21T01:44:20;15.38;;;13.10;;
19595;SDS011;9945;46.010;8.946;2023-11-21T01:46:47;14.37;;;12.20;;
19595;SDS011;9945;46.010;8.946;2023-11-21T01:49:14;13.38;;;11.60;;
19595;SDS011;9945;46.010;8.946;2023-11-21T01:51:43;16.52;;;11.30;;
19595;SDS011;9945;46.010;8.946;2023-11-21T01:54:14;12.60;;;10.77;;
19595;SDS011;9945;46.010;8.946;2023-11-21T01:56:42;13.98;;;11.48;;
19595;SDS011;9945;46.010;8.946;2023-11-21T01:59:10;13.77;;;11.97;;
19595;SDS011;9945;46.010;8.946;2023-11-21T02:01:38;12.43;;;10.93;;
19595;SDS011;9945;46.010;8.946;2023-11-21T02:04:06;15.73;;;11.83;;
19595;SDS011;9945;46.010;8.946;2023-11-21T02:06:34;12.55;;;10.35;;
19595;SDS011;9945;46.010;8.946;2023-11-21T02:09:00;12.13;;;10.40;;
19595;SDS011;9945;46.010;8.946;2023-11-21T02:11:30;13.10;;;10.57;;
19595;SDS011;9945;46.010;8.946;2023-11-21T02:14:00;13.60;;;10.35;;
19595;SDS011;9945;46.010;8.946;2023-11-21T02:16:27;14.07;;;10.75;;
19595;SDS011;9945;46.010;8.946;2023-11-21T02:18:58;13.43;;;11.00;;
19595;SDS011;9945;46.010;8.946;2023-11-21T02:21:25;13.48;;;10.05;;
19595;SDS011;9945;46.010;8.946;2023-11-21T02:23:54;11.53;;;9.87;;
19595;SDS011;9945;46.010;8.946;2023-11-21T02:26:21;12.33;;;10.60;;
19595;SDS011;9945;46.010;8.946;2023-11-21T02:28:47;13.35;;;10.60;;
19595;SDS011;9945;46.010;8.946;2023-11-21T02:31:14;13.70;;;10.90;;
19595;SDS011;9945;46.010;8.946;2023-11-21T02:33:41;13.40;;;10.70;;
19595;SDS011;9945;46.010;8.946;2023-11-21T02:36:09;14.23;;;11.25;;
19595;SDS011;9945;46.010;8.946;2023-11-21T02:38:36;14.57;;;11.90;;
19595;SDS011;9945;46.010;8.946;2023-11-21T02:41:04;14.00;;;12.15;;
19595;SDS011;9945;46.010;8.946;2023-11-21T02:43:31;13.60;;;11.65;;
19595;SDS011;9945;46.010;8.946;2023-11-21T02:46:01;18.60;;;13.60;;
19595;SDS011;9945;46.010;8.946;2023-11-21T02:48:27;16.57;;;14.87;;
19595;SDS011;9945;46.010;8.946;2023-11-21T02:50:56;14.43;;;12.90;;
19595;SDS011;9945;46.010;8.946;2023-11-21T02:53:22;17.35;;;14.15;;
19595;SDS011;9945;46.010;8.946;2023-11-21T02:55:50;19.00;;;15.03;;
19595;SDS011;9945;46.010;8.946;2023-11-21T02:58:18;20.53;;;14.43;;
19595;SDS011;9945;46.010;8.946;2023-11-21T03:00:45;20.97;;;15.63;;
19595;SDS011;9945;46.010;8.946;2023-11-21T03:03:12;18.20;;;16.17;;
19595;SDS011;9945;46.010;8.946;2023-11-21T03:05:39;16.73;;;15.03;;
19595;SDS011;9945;46.010;8.946;2023-11-21T03:08:06;17.55;;;13.98;;
19595;SDS011;9945;46.010;8.946;2023-11-21T03:10:33;16.77;;;14.70;;
19595;SDS011;9945;46.010;8.946;2023-11-21T03:13:00;19.90;;;15.17;;
19595;SDS011;9945;46.010;8.946;2023-11-21T03:15:29;16.15;;;13.93;;
19595;SDS011;9945;46.010;8.946;2023-11-21T03:17:57;15.20;;;12.60;;
19595;SDS011;9945;46.010;8.946;2023-11-21T03:20:24;15.87;;;12.33;;
19595;SDS011;9945;46.010;8.946;2023-11-21T03:22:51;15.23;;;12.20;;
19595;SDS011;9945;46.010;8.946;2023-11-21T03:25:18;14.27;;;12.88;;
19595;SDS011;9945;46.010;8.946;2023-11-21T03:27:45;15.07;;;11.90;;
19595;SDS011;9945;46.010;8.946;2023-11-21T03:30:12;13.13;;;11.37;;
19595;SDS011;9945;46.010;8.946;2023-11-21T03:32:40;13.07;;;11.73;;
19595;SDS011;9945;46.010;8.946;2023-11-21T03:35:07;14.27;;;11.37;;
19595;SDS011;9945;46.010;8.946;2023-11-21T03:37:34;14.07;;;11.33;;
19595;SDS011;9945;46.010;8.946;2023-11-21T03:40:03;14.57;;;11.80;;
19595;SDS011;9945;46.010;8.946;2023-11-21T03:42:33;14.67;;;10.97;;
19595;SDS011;9945;46.010;8.946;2023-11-21T03:45:00;14.03;;;11.07;;
19595;SDS011;9945;46.010;8.946;2023-11-21T03:47:28;12.93;;;11.47;;
19595;SDS011;9945;46.010;8.946;2023-11-21T03:49:56;12.23;;;10.93;;
19595;SDS011;9945;46.010;8.946;2023-11-21T03:52:23;14.63;;;11.93;;
19595;SDS011;9945;46.010;8.946;2023-11-21T03:54:50;13.20;;;11.57;;
19595;SDS011;9945;46.010;8.946;2023-11-21T03:57:17;17.03;;;13.40;;
19595;SDS011;9945;46.010;8.946;2023-11-21T03:59:44;14.60;;;13.10;;
19595;SDS011;9945;46.010;8.946;2023-11-21T04:02:11;15.17;;;12.70;;
19595;SDS011;9945;46.010;8.946;2023-11-21T04:04:38;13.40;;;12.03;;
19595;SDS011;9945;46.010;8.946;2023-11-21T04:07:07;15.33;;;11.93;;
19595;SDS011;9945;46.010;8.946;2023-11-21T04:09:34;15.97;;;11.07;;
19595;SDS011;9945;46.010;8.946;2023-11-21T04:12:01;15.50;;;11.60;;
19595;SDS011;9945;46.010;8.946;2023-11-21T04:14:28;13.20;;;11.67;;
19595;SDS011;9945;46.010;8.946;2023-11-21T04:16:55;14.90;;;11.50;;
19595;SDS011;9945;46.010;8.946;2023-11-21T04:19:22;12.00;;;10.77;;
19595;SDS011;9945;46.010;8.946;2023-11-21T04:21:49;14.97;;;12.50;;
19595;SDS011;9945;46.010;8.946;2023-11-21T04:24:17;16.83;;;13.70;;
19595;SDS011;9945;46.010;8.946;2023-11-21T04:26:44;16.63;;;12.70;;
19595;SDS011;9945;46.010;8.946;2023-11-21T04:29:11;18.13;;;13.63;;
19595;SDS011;9945;46.010;8.946;2023-11-21T04:31:38;15.33;;;13.40;;
19595;SDS011;9945;46.010;8.946;2023-11-21T04:34:06;16.60;;;13.90;;
19595;SDS011;9945;46.010;8.946;2023-11-21T04:36:33;16.90;;;15.10;;
19595;SDS011;9945;46.010;8.946;2023-11-21T04:39:00;18.30;;;14.93;;
19595;SDS011;9945;46.010;8.946;2023-11-21T04:41:28;20.50;;;14.00;;
19595;SDS011;9945;46.010;8.946;2023-11-21T04:43:56;18.17;;;14.33;;
19595;SDS011;9945;46.010;8.946;2023-11-21T04:46:23;21.83;;;15.20;;
19595;SDS011;9945;46.010;8.946;2023-11-21T04:48:50;16.53;;;14.73;;
19595;SDS011;9945;46.010;8.946;2023-11-21T04:51:17;19.33;;;13.77;;
19595;SDS011;9945;46.010;8.946;2023-11-21T04:53:44;17.07;;;13.87;;
19595;SDS011;9945;46.010;8.946;2023-11-21T04:56:11;16.03;;;13.97;;
19595;SDS011;9945;46.010;8.946;2023-11-21T04:58:39;16.17;;;12.93;;
19595;SDS011;9945;46.010;8.946;2023-11-21T05:01:06;19.40;;;13.00;;
19595;SDS011;9945;46.010;8.946;2023-11-21T05:03:33;14.70;;;13.20;;
19595;SDS011;9945;46.010;8.946;2023-11-21T05:06:00;14.93;;;13.07;;
19595;SDS011;9945;46.010;8.946;2023-11-21T05:08:27;17.20;;;12.83;;
19595;SDS011;9945;46.010;8.946;2023-11-21T05:10:54;14.03;;;11.87;;
19595;SDS011;9945;46.010;8.946;2023-11-21T05:13:21;16.23;;;13.13;;
19595;SDS011;9945;46.010;8.946;2023-11-21T05:15:53;16.37;;;14.13;;
19595;SDS011;9945;46.010;8.946;2023-11-21T05:18:21;16.60;;;13.83;;
19595;SDS011;9945;46.010;8.946;2023-11-21T05:20:48;19.70;;;15.97;;
19595;SDS011;9945;46.010;8.946;2023-11-21T05:23:15;18.23;;;14.97;;
19595;SDS011;9945;46.010;8.946;2023-11-21T05:25:42;16.97;;;15.00;;
19595;SDS011;9945;46.010;8.946;2023-11-21T05:28:09;15.63;;;13.80;;
19595;SDS011;9945;46.010;8.946;2023-11-21T05:30:36;13.97;;;12.47;;
19595;SDS011;9945;46.010;8.946;2023-11-21T05:33:05;15.00;;;13.10;;
19595;SDS011;9945;46.010;8.946;2023-11-21T05:35:32;14.87;;;12.43;;
19595;SDS011;9945;46.010;8.946;2023-11-21T05:37:58;14.37;;;12.27;;
19595;SDS011;9945;46.010;8.946;2023-11-21T05:40:25;15.17;;;12.33;;
19595;SDS011;9945;46.010;8.946;2023-11-21T05:42:54;14.23;;;11.97;;
19595;SDS011;9945;46.010;8.946;2023-11-21T05:45:22;27.03;;;13.93;;
19595;SDS011;9945;46.010;8.946;2023-11-21T05:47:49;14.37;;;12.87;;
19595;SDS011;9945;46.010;8.946;2023-11-21T05:50:17;15.17;;;13.00;;
19595;SDS011;9945;46.010;8.946;2023-11-21T05:52:44;16.40;;;14.03;;
19595;SDS011;9945;46.010;8.946;2023-11-21T05:55:12;15.27;;;13.30;;
19595;SDS011;9945;46.010;8.946;2023-11-21T05:57:40;18.10;;;13.03;;
19595;SDS011;9945;46.010;8.946;2023-11-21T06:00:09;18.37;;;13.30;;
19595;SDS011;9945;46.010;8.946;2023-11-21T06:02:40;16.57;;;13.03;;
19595;SDS011;9945;46.010;8.946;2023-11-21T06:05:08;17.10;;;12.90;;
19595;SDS011;9945;46.010;8.946;2023-11-21T06:07:37;15.97;;;14.23;;
19595;SDS011;9945;46.010;8.946;2023-11-21T06:10:05;20.60;;;13.40;;
19595;SDS011;9945;46.010;8.946;2023-11-21T06:12:36;19.77;;;14.03;;
19595;SDS011;9945;46.010;8.946;2023-11-21T06:15:04;17.20;;;14.73;;
19595;SDS011;9945;46.010;8.946;2023-11-21T06:17:33;18.90;;;14.37;;
19595;SDS011;9945;46.010;8.946;2023-11-21T06:20:01;22.03;;;14.83;;
19595;SDS011;9945;46.010;8.946;2023-11-21T06:22:34;16.83;;;14.40;;
19595;SDS011;9945;46.010;8.946;2023-11-21T06:25:02;17.53;;;14.53;;
19595;SDS011;9945;46.010;8.946;2023-11-21T06:27:31;16.37;;;14.40;;
19595;SDS011;9945;46.010;8.946;2023-11-21T06:29:58;17.20;;;14.87;;
19595;SDS011;9945;46.010;8.946;2023-11-21T06:32:25;16.90;;;15.07;;
19595;SDS011;9945;46.010;8.946;2023-11-21T06:34:52;18.80;;;13.70;;
19595;SDS011;9945;46.010;8.946;2023-11-21T06:37:19;22.90;;;15.33;;
19595;SDS011;9945;46.010;8.946;2023-11-21T06:39:48;21.87;;;14.77;;
19595;SDS011;9945;46.010;8.946;2023-11-21T06:42:16;22.00;;;15.77;;
19595;SDS011;9945;46.010;8.946;2023-11-21T06:44:44;22.43;;;15.33;;
19595;SDS011;9945;46.010;8.946;2023-11-21T06:47:11;19.17;;;14.53;;
19595;SDS011;9945;46.010;8.946;2023-11-21T06:49:38;17.93;;;14.90;;
19595;SDS011;9945;46.010;8.946;2023-11-21T06:52:05;18.10;;;15.70;;
19595;SDS011;9945;46.010;8.946;2023-11-21T06:54:33;19.10;;;14.83;;
19595;SDS011;9945;46.010;8.946;2023-11-21T06:57:00;19.30;;;15.57;;
19595;SDS011;9945;46.010;8.946;2023-11-21T06:59:29;24.20;;;15.47;;
19595;SDS011;9945;46.010;8.946;2023-11-21T07:01:56;18.87;;;16.77;;
19595;SDS011;9945;46.010;8.946;2023-11-21T07:04:23;22.17;;;16.90;;
19595;SDS011;9945;46.010;8.946;2023-11-21T07:06:50;23.43;;;16.67;;
19595;SDS011;9945;46.010;8.946;2023-11-21T07:09:17;22.70;;;17.43;;
19595;SDS011;9945;46.010;8.946;2023-11-21T07:11:47;20.17;;;16.83;;
19595;SDS011;9945;46.010;8.946;2023-11-21T07:14:14;22.97;;;18.07;;
19595;SDS011;9945;46.010;8.946;2023-11-21T07:16:43;22.83;;;17.80;;
19595;SDS011;9945;46.010;8.946;2023-11-21T07:19:11;29.23;;;18.70;;
19595;SDS011;9945;46.010;8.946;2023-11-21T07:21:39;26.43;;;19.10;;
19595;SDS011;9945;46.010;8.946;2023-11-21T07:24:07;29.67;;;19.70;;
19595;SDS011;9945;46.010;8.946;2023-11-21T07:26:36;24.83;;;18.33;;
19595;SDS011;9945;46.010;8.946;2023-11-21T07:29:04;24.50;;;18.90;;
19595;SDS011;9945;46.010;8.946;2023-11-21T07:31:31;24.27;;;19.47;;
19595;SDS011;9945;46.010;8.946;2023-11-21T07:34:01;24.90;;;18.27;;
19595;SDS011;9945;46.010;8.946;2023-11-21T07:36:28;22.63;;;18.60;;
19595;SDS011;9945;46.010;8.946;2023-11-21T07:38:55;22.90;;;18.43;;
19595;SDS011;9945;46.010;8.946;2023-11-21T07:41:21;26.73;;;17.67;;
19595;SDS011;9945;46.010;8.946;2023-11-21T07:43:49;22.07;;;17.93;;
19595;SDS011;9945;46.010;8.946;2023-11-21T07:46:15;23.50;;;17.17;;
19595;SDS011;9945;46.010;8.946;2023-11-21T07:48:43;24.33;;;18.13;;
19595;SDS011;9945;46.010;8.946;2023-11-21T07:51:12;21.43;;;16.73;;
19595;SDS011;9945;46.010;8.946;2023-11-21T07:53:39;21.70;;;16.87;;
19595;SDS011;9945;46.010;8.946;2023-11-21T07:56:07;28.80;;;17.47;;
19595;SDS011;9945;46.010;8.946;2023-11-21T07:58:35;23.90;;;17.77;;
19595;SDS011;9945;46.010;8.946;2023-11-21T08:01:02;22.97;;;17.17;;
19595;SDS011;9945;46.010;8.946;2023-11-21T08:03:30;24.93;;;18.10;;
19595;SDS011;9945;46.010;8.946;2023-11-21T08:05:57;19.80;;;16.40;;
19595;SDS011;9945;46.010;8.946;2023-11-21T08:08:26;21.33;;;15.23;;
19595;SDS011;9945;46.010;8.946;2023-11-21T08:10:53;21.53;;;15.27;;
19595;SDS011;9945;46.010;8.946;2023-11-21T08:13:22;20.17;;;14.97;;
19595;SDS011;9945;46.010;8.946;2023-11-21T08:15:49;18.63;;;14.97;;
19595;SDS011;9945;46.010;8.946;2023-11-21T08:18:17;18.60;;;15.57;;
19595;SDS011;9945;46.010;8.946;2023-11-21T08:20:44;22.20;;;16.80;;
19595;SDS011;9945;46.010;8.946;2023-11-21T08:23:13;20.50;;;16.17;;
19595;SDS011;9945;46.010;8.946;2023-11-21T08:25:43;21.60;;;16.90;;
19595;SDS011;9945;46.010;8.946;2023-11-21T08:28:10;19.00;;;15.90;;
19595;SDS011;9945;46.010;8.946;2023-11-21T08:30:37;24.90;;;17.50;;
19595;SDS011;9945;46.010;8.946;2023-11-21T08:33:04;25.40;;;18.00;;
19595;SDS011;9945;46.010;8.946;2023-11-21T08:35:32;23.90;;;18.23;;
19595;SDS011;9945;46.010;8.946;2023-11-21T08:37:58;22.37;;;17.83;;
19595;SDS011;9945;46.010;8.946;2023-11-21T08:40:26;22.93;;;17.60;;
19595;SDS011;9945;46.010;8.946;2023-11-21T08:42:54;20.97;;;18.23;;
19595;SDS011;9945;46.010;8.946;2023-11-21T08:45:24;26.05;;;18.98;;
19595;SDS011;9945;46.010;8.946;2023-11-21T08:47:51;23.55;;;18.85;;
19595;SDS011;9945;46.010;8.946;2023-11-21T08:50:18;23.73;;;19.13;;
19595;SDS011;9945;46.010;8.946;2023-11-21T08:52:46;22.20;;;18.60;;
19595;SDS011;9945;46.010;8.946;2023-11-21T08:55:13;22.63;;;18.13;;
19595;SDS011;9945;46.010;8.946;2023-11-21T08:57:42;20.85;;;17.98;;
19595;SDS011;9945;46.010;8.946;2023-11-21T09:00:12;23.52;;;18.45;;
19595;SDS011;9945;46.010;8.946;2023-11-21T09:02:42;21.83;;;17.50;;
19595;SDS011;9945;46.010;8.946;2023-11-21T09:05:09;22.00;;;17.58;;
19595;SDS011;9945;46.010;8.946;2023-11-21T09:07:36;23.83;;;19.00;;
19595;SDS011;9945;46.010;8.946;2023-11-21T09:10:05;22.38;;;17.48;;
19595;SDS011;9945;46.010;8.946;2023-11-21T09:12:34;21.40;;;17.75;;
19595;SDS011;9945;46.010;8.946;2023-11-21T09:15:02;22.08;;;19.05;;
19595;SDS011;9945;46.010;8.946;2023-11-21T09:17:32;21.13;;;16.35;;
19595;SDS011;9945;46.010;8.946;2023-11-21T09:19:59;24.73;;;18.98;;
19595;SDS011;9945;46.010;8.946;2023-11-21T09:22:28;22.40;;;17.80;;
19595;SDS011;9945;46.010;8.946;2023-11-21T09:24:56;28.50;;;17.40;;
19595;SDS011;9945;46.010;8.946;2023-11-21T09:27:23;20.85;;;18.60;;
19595;SDS011;9945;46.010;8.946;2023-11-21T09:29:51;23.77;;;18.92;;
19595;SDS011;9945;46.010;8.946;2023-11-21T09:32:19;25.90;;;19.52;;
19595;SDS011;9945;46.010;8.946;2023-11-21T09:34:48;22.52;;;17.90;;
19595;SDS011;9945;46.010;8.946;2023-11-21T09:37:15;22.08;;;17.45;;
19595;SDS011;9945;46.010;8.946;2023-11-21T09:39:42;26.23;;;19.45;;
19595;SDS011;9945;46.010;8.946;2023-11-21T09:42:10;35.63;;;21.02;;
19595;SDS011;9945;46.010;8.946;2023-11-21T09:44:43;26.25;;;19.85;;
19595;SDS011;9945;46.010;8.946;2023-11-21T09:47:15;29.45;;;19.85;;
19595;SDS011;9945;46.010;8.946;2023-11-21T09:49:42;23.75;;;19.00;;
19595;SDS011;9945;46.010;8.946;2023-11-21T09:52:22;23.25;;;19.67;;
19595;SDS011;9945;46.010;8.946;2023-11-21T09:54:51;278.20;;;117.05;;
19595;SDS011;9945;46.010;8.946;2023-11-21T09:57:19;62.55;;;37.08;;
19595;SDS011;9945;46.010;8.946;2023-11-21T09:59:49;27.35;;;21.02;;
19595;SDS011;9945;46.010;8.946;2023-11-21T10:02:17;22.52;;;20.13;;
19595;SDS011;9945;46.010;8.946;2023-11-21T10:04:47;27.10;;;20.90;;
19595;SDS011;9945;46.010;8.946;2023-11-21T10:07:14;25.75;;;18.92;;
19595;SDS011;9945;46.010;8.946;2023-11-21T10:09:44;24.17;;;18.73;;
19595;SDS011;9945;46.010;8.946;2023-11-21T10:12:11;21.75;;;17.30;;
19595;SDS011;9945;46.010;8.946;2023-11-21T10:14:41;24.77;;;17.70;;
19595;SDS011;9945;46.010;8.946;2023-11-21T10:17:10;27.15;;;19.35;;
19595;SDS011;9945;46.010;8.946;2023-11-21T10:19:39;20.05;;;17.98;;
19595;SDS011;9945;46.010;8.946;2023-11-21T10:22:08;26.15;;;19.60;;
19595;SDS011;9945;46.010;8.946;2023-11-21T10:24:35;23.15;;;18.90;;
19595;SDS011;9945;46.010;8.946;2023-11-21T10:27:03;23.15;;;19.08;;
19595;SDS011;9945;46.010;8.946;2023-11-21T10:29:30;25.90;;;18.90;;
19595;SDS011;9945;46.010;8.946;2023-11-21T10:32:03;21.70;;;19.33;;
19595;SDS011;9945;46.010;8.946;2023-11-21T10:34:31;19.23;;;17.08;;
19595;SDS011;9945;46.010;8.946;2023-11-21T10:36:58;19.23;;;17.15;;
19595;SDS011;9945;46.010;8.946;2023-11-21T10:39:26;21.65;;;14.77;;
19595;SDS011;9945;46.010;8.946;2023-11-21T10:41:56;23.02;;;12.93;;
19595;SDS011;9945;46.010;8.946;2023-11-21T10:44:23;13.38;;;11.98;;
19595;SDS011;9945;46.010;8.946;2023-11-21T10:46:51;13.50;;;12.13;;
19595;SDS011;9945;46.010;8.946;2023-11-21T10:49:21;14.25;;;12.82;;
19595;SDS011;9945;46.010;8.946;2023-11-21T10:51:50;21.30;;;16.73;;
19595;SDS011;9945;46.010;8.946;2023-11-21T10:54:21;17.95;;;15.65;;
19595;SDS011;9945;46.010;8.946;2023-11-21T10:56:51;16.88;;;15.02;;
19595;SDS011;9945;46.010;8.946;2023-11-21T10:59:22;15.88;;;14.15;;
19595;SDS011;9945;46.010;8.946;2023-11-21T11:01:50;16.77;;;14.48;;
19595;SDS011;9945;46.010;8.946;2023-11-21T11:04:18;14.75;;;12.85;;
19595;SDS011;9945;46.010;8.946;2023-11-21T11:06:48;15.32;;;13.38;;
19595;SDS011;9945;46.010;8.946;2023-11-21T11:09:20;16.38;;;12.50;;
19595;SDS011;9945;46.010;8.946;2023-11-21T11:11:47;15.20;;;13.70;;
19595;SDS011;9945;46.010;8.946;2023-11-21T11:14:18;15.77;;;14.05;;
19595;SDS011;9945;46.010;8.946;2023-11-21T11:16:45;15.75;;;14.15;;
19595;SDS011;9945;46.010;8.946;2023-11-21T11:19:14;17.30;;;13.68;;
19595;SDS011;9945;46.010;8.946;2023-11-21T11:21:46;19.33;;;14.07;;
19595;SDS011;9945;46.010;8.946;2023-11-21T11:24:40;14.93;;;13.43;;
19595;SDS011;9945;46.010;8.946;2023-11-21T11:27:30;15.18;;;13.60;;
19595;SDS011;9945;46.010;8.946;2023-11-21T11:30:09;17.73;;;15.82;;
19595;SDS011;9945;46.010;8.946;2023-11-21T11:32:50;16.17;;;14.48;;
19595;SDS011;9945;46.010;8.946;2023-11-21T11:35:26;15.07;;;13.57;;
19595;SDS011;9945;46.010;8.946;2023-11-21T11:38:00;15.63;;;12.88;;
19595;SDS011;9945;46.010;8.946;2023-11-21T11:40:38;15.45;;;13.05;;
19595;SDS011;9945;46.010;8.946;2023-11-21T11:43:07;14.63;;;12.40;;
19595;SDS011;9945;46.010;8.946;2023-11-21T11:45:35;13.77;;;12.25;;
19595;SDS011;9945;46.010;8.946;2023-11-21T11:48:06;12.75;;;11.45;;
19595;SDS011;9945;46.010;8.946;2023-11-21T11:50:33;15.45;;;12.15;;
19595;SDS011;9945;46.010;8.946;2023-11-21T11:53:11;17.65;;;13.10;;
19595;SDS011;9945;46.010;8.946;2023-11-21T11:55:39;13.00;;;11.70;;
19595;SDS011;9945;46.010;8.946;2023-11-21T11:58:08;13.73;;;11.05;;
19595;SDS011;9945;46.010;8.946;2023-11-21T12:00:35;12.90;;;10.63;;
19595;SDS011;9945;46.010;8.946;2023-11-21T12:03:05;11.73;;;10.30;;
19595;SDS011;9945;46.010;8.946;2023-11-21T12:05:34;8.27;;;7.57;;
19595;SDS011;9945;46.010;8.946;2023-11-21T12:08:04;6.45;;;5.85;;
19595;SDS011;9945;46.010;8.946;2023-11-21T12:10:33;10.23;;;8.98;;
19595;SDS011;9945;46.010;8.946;2023-11-21T12:13:02;13.95;;;12.10;;
19595;SDS011;9945;46.010;8.946;2023-11-21T12:15:33;15.48;;;13.35;;
19595;SDS011;9945;46.010;8.946;2023-11-21T12:18:01;13.07;;;11.10;;
19595;SDS011;9945;46.010;8.946;2023-11-21T12:20:29;7.70;;;6.30;;
19595;SDS011;9945;46.010;8.946;2023-11-21T12:22:57;19.10;;;9.45;;
19595;SDS011;9945;46.010;8.946;2023-11-21T12:25:25;5.30;;;4.80;;
19595;SDS011;9945;46.010;8.946;2023-11-21T12:27:54;3.60;;;3.30;;
19595;SDS011;9945;46.010;8.946;2023-11-21T12:30:23;7.78;;;5.75;;
19595;SDS011;9945;46.010;8.946;2023-11-21T12:32:55;11.25;;;6.82;;
19595;SDS011;9945;46.010;8.946;2023-11-21T12:35:23;8.35;;;7.10;;
19595;SDS011;9945;46.010;8.946;2023-11-21T12:37:52;8.38;;;5.72;;
19595;SDS011;9945;46.010;8.946;2023-11-21T12:40:22;8.05;;;6.80;;
19595;SDS011;9945;46.010;8.946;2023-11-21T12:42:51;6.90;;;6.20;;
19595;SDS011;9945;46.010;8.946;2023-11-21T12:45:19;7.82;;;6.78;;
19595;SDS011;9945;46.010;8.946;2023-11-21T12:47:48;8.23;;;6.88;;
19595;SDS011;9945;46.010;8.946;2023-11-21T12:50:19;8.48;;;5.80;;
19595;SDS011;9945;46.010;8.946;2023-11-21T12:52:49;1.30;;;1.20;;
19595;SDS011;9945;46.010;8.946;2023-11-21T12:55:17;0.50;;;0.50;;
19595;SDS011;9945;46.010;8.946;2023-11-21T12:57:47;9.40;;;6.50;;
19595;SDS011;9945;46.010;8.946;2023-11-21T13:00:17;1.02;;;0.50;;
19595;SDS011;9945;46.010;8.946;2023-11-21T13:02:55;0.93;;;0.57;;
19595;SDS011;9945;46.010;8.946;2023-11-21T13:05:25;0.77;;;0.77;;
19595;SDS011;9945;46.010;8.946;2023-11-21T13:07:53;3.03;;;0.30;;
19595;SDS011;9945;46.010;8.946;2023-11-21T13:10:23;0.20;;;0.20;;
19595;SDS011;9945;46.010;8.946;2023-11-21T13:12:54;0.40;;;0.40;;
19595;SDS011;9945;46.010;8.946;2023-11-21T13:15:23;2.10;;;0.50;;
19595;SDS011;9945;46.010;8.946;2023-11-21T13:17:50;2.28;;;0.43;;
19595;SDS011;9945;46.010;8.946;2023-11-21T13:20:21;0.30;;;0.30;;
19595;SDS011;9945;46.010;8.946;2023-11-21T13:22:51;0.30;;;0.30;;
19595;SDS011;9945;46.010;8.946;2023-11-21T13:25:22;4.30;;;0.50;;
19595;SDS011;9945;46.010;8.946;2023-11-21T13:27:52;2.15;;;0.50;;
19595;SDS011;9945;46.010;8.946;2023-11-21T13:30:19;0.22;;;0.22;;
19595;SDS011;9945;46.010;8.946;2023-11-21T13:32:51;4.85;;;0.35;;
19595;SDS011;9945;46.010;8.946;2023-11-21T13:35:18;0.30;;;0.30;;
19595;SDS011;9945;46.010;8.946;2023-11-21T13:37:57;0.20;;;0.20;;
19595;SDS011;9945;46.010;8.946;2023-11-21T13:40:30;2.17;;;0.30;;
19595;SDS011;9945;46.010;8.946;2023-11-21T13:42:59;3.03;;;0.30;;
19595;SDS011;9945;46.010;8.946;2023-11-21T13:45:29;3.17;;;0.50;;
19595;SDS011;9945;46.010;8.946;2023-11-21T13:47:56;0.38;;;0.38;;
19595;SDS011;9945;46.010;8.946;2023-11-21T13:50:24;0.95;;;0.43;;
19595;SDS011;9945;46.010;8.946;2023-11-21T13:52:59;1.85;;;0.45;;
19595;SDS011;9945;46.010;8.946;2023-11-21T13:55:29;0.93;;;0.43;;
19595;SDS011;9945;46.010;8.946;2023-11-21T13:57:56;0.30;;;0.30;;
19595;SDS011;9945;46.010;8.946;2023-11-21T14:00:24;0.47;;;0.47;;
19595;SDS011;9945;46.010;8.946;2023-11-21T14:03:09;1.67;;;0.43;;
19595;SDS011;9945;46.010;8.946;2023-11-21T14:05:44;0.63;;;0.40;;
19595;SDS011;9945;46.010;8.946;2023-11-21T14:08:14;0.40;;;0.40;;
19595;SDS011;9945;46.010;8.946;2023-11-21T14:10:45;0.38;;;0.20;;
19595;SDS011;9945;46.010;8.946;2023-11-21T14:13:16;0.28;;;0.28;;
19595;SDS011;9945;46.010;8.946;2023-11-21T14:15:43;0.30;;;0.30;;
19595;SDS011;9945;46.010;8.946;2023-11-21T14:18:10;3.70;;;0.40;;
19595;SDS011;9945;46.010;8.946;2023-11-21T14:20:39;0.30;;;0.30;;
19595;SDS011;9945;46.010;8.946;2023-11-21T14:23:07;0.30;;;0.30;;
19595;SDS011;9945;46.010;8.946;2023-11-21T14:25:37;1.85;;;0.30;;
19595;SDS011;9945;46.010;8.946;2023-11-21T14:28:04;0.30;;;0.30;;
19595;SDS011;9945;46.010;8.946;2023-11-21T14:30:32;0.30;;;0.30;;
19595;SDS011;9945;46.010;8.946;2023-11-21T14:33:01;0.30;;;0.30;;
19595;SDS011;9945;46.010;8.946;2023-11-21T14:35:28;1.45;;;0.30;;
19595;SDS011;9945;46.010;8.946;2023-11-21T14:37:57;2.20;;;0.30;;
19595;SDS011;9945;46.010;8.946;2023-11-21T14:40:25;0.22;;;0.22;;
19595;SDS011;9945;46.010;8.946;2023-11-21T14:42:59;0.82;;;0.30;;
19595;SDS011;9945;46.010;8.946;2023-11-21T14:45:26;0.20;;;0.20;;